createdAt,value
2022-10-14T00:03:02.188Z,101249.94
2022-10-14T00:10:38.481Z,101239.88
2022-10-14T00:18:13.508Z,101236.09
2022-10-14T00:25:47.311Z,101243.16
2022-10-14T00:33:22.343Z,101231.50
2022-10-14T00:40:56.909Z,101227.78
2022-10-14T00:48:31.877Z,101232.94
2022-10-14T00:56:06.317Z,101241.69
2022-10-14T01:03:42.393Z,101234.34
2022-10-14T01:11:23.259Z,101230.66
2022-10-14T01:19:14.540Z,101219.91
2022-10-14T01:27:05.437Z,101218.94
2022-10-14T01:34:45.725Z,101217.03
2022-10-14T01:42:23.967Z,101219.44
2022-10-14T01:50:04.217Z,101217.59
2022-10-14T01:57:40.754Z,101218.09
2022-10-14T02:05:21.031Z,101208.13
2022-10-14T02:13:06.390Z,101219.56
2022-10-14T02:20:47.054Z,101216.66
2022-10-14T02:28:24.210Z,101220.78
2022-10-14T02:35:59.416Z,101226.13
2022-10-14T02:43:33.462Z,101222.63
2022-10-14T02:51:08.484Z,101214.81
2022-10-14T02:58:42.092Z,101200.84
2022-10-14T03:06:17.098Z,101184.22
2022-10-14T03:13:51.128Z,101185.13
2022-10-14T03:21:26.092Z,101184.16
2022-10-14T03:28:59.979Z,101177.00
2022-10-14T03:36:35.275Z,101181.28
2022-10-14T03:44:08.922Z,101180.38
2022-10-14T03:51:44.044Z,101188.34
2022-10-14T03:59:17.896Z,101175.00
2022-10-14T04:06:54.067Z,101183.91
2022-10-14T04:14:27.931Z,101173.31
2022-10-14T04:22:03.045Z,101159.22
2022-10-14T04:29:36.757Z,101169.13
2022-10-14T04:37:11.816Z,101163.06
2022-10-14T04:44:45.712Z,101153.44
2022-10-14T04:52:21.273Z,101144.66
2022-10-14T04:59:55.149Z,101143.16
2022-10-14T05:07:30.906Z,101150.41
2022-10-14T05:15:06.359Z,101144.28
2022-10-14T05:22:41.678Z,101137.31
2022-10-14T05:30:15.520Z,101134.84
2022-10-14T05:37:57.706Z,101129.69
2022-10-14T05:45:34.628Z,101126.34
2022-10-14T05:53:10.396Z,101125.59
2022-10-14T06:00:44.123Z,101125.72
2022-10-14T06:08:19.490Z,101133.94
2022-10-14T06:15:53.362Z,101129.72
2022-10-14T06:23:28.837Z,101116.69
2022-10-14T06:31:02.542Z,101120.44
2022-10-14T06:38:37.691Z,101126.00
2022-10-14T06:46:11.611Z,101136.88
2022-10-14T06:53:46.610Z,101144.41
2022-10-14T07:01:20.542Z,101148.22
2022-10-14T07:08:55.870Z,101152.34
2022-10-14T07:16:29.551Z,101153.41
2022-10-14T07:24:04.965Z,101157.38
2022-10-14T07:31:38.704Z,101148.53
2022-10-14T07:39:14.219Z,101161.84
2022-10-14T07:46:48.506Z,101153.34
2022-10-14T07:54:26.241Z,101141.69
2022-10-14T08:02:00.133Z,101145.78
2022-10-14T08:09:37.951Z,101151.59
2022-10-14T08:17:11.738Z,101154.41
2022-10-14T08:24:47.071Z,101157.69
2022-10-14T08:32:21.011Z,101138.47
2022-10-14T08:39:56.472Z,101124.66
2022-10-14T08:47:37.865Z,101112.84
2022-10-14T08:55:24.227Z,101121.16
2022-10-14T09:03:00.960Z,101120.50
2022-10-14T09:10:40.608Z,101110.25
2022-10-14T09:18:24.629Z,101099.47
2022-10-14T09:26:04.270Z,101087.41
2022-10-14T09:33:42.322Z,101090.00
2022-10-14T09:41:20.834Z,101088.44
2022-10-14T09:48:55.199Z,101094.72
2022-10-14T09:56:37.554Z,101075.84
2022-10-14T10:04:27.383Z,101079.44
2022-10-14T10:12:23.951Z,101071.50
2022-10-14T10:20:17.821Z,101067.84
2022-10-14T10:27:54.876Z,101074.16
2022-10-14T10:35:31.295Z,101063.44
2022-10-14T10:43:33.817Z,101059.84
2022-10-14T10:51:14.381Z,101057.19
2022-10-14T10:59:06.569Z,101051.81
2022-10-14T11:07:08.423Z,101045.53
2022-10-14T11:15:06.357Z,101043.75
2022-10-14T11:22:55.998Z,101027.59
2022-10-14T11:30:44.074Z,101020.44
2022-10-14T11:38:35.980Z,101006.03
2022-10-14T11:46:13.711Z,100997.91
2022-10-14T11:53:58.474Z,100999.66
2022-10-14T12:01:41.679Z,100996.94
2022-10-14T12:09:22.327Z,100988.84
2022-10-14T12:17:01.039Z,100979.81
2022-10-14T12:24:40.296Z,100975.28
2022-10-14T12:32:24.286Z,100977.09
2022-10-14T12:40:24.529Z,100953.72
2022-10-14T12:48:07.316Z,100949.97
2022-10-14T12:55:50.795Z,100939.09
2022-10-14T13:03:29.373Z,100931.91
2022-10-14T13:11:14.634Z,100922.69
2022-10-14T13:18:54.745Z,100923.56
2022-10-14T13:26:38.000Z,100915.50
2022-10-14T13:34:23.497Z,100921.78
2022-10-14T13:41:58.631Z,100911.78
2022-10-14T13:49:37.816Z,100917.16
2022-10-14T13:57:53.709Z,100913.66
2022-10-14T14:05:17.017Z,100912.81
2022-10-14T14:12:51.812Z,100917.41
2022-10-14T14:20:29.768Z,100915.66
2022-10-14T14:28:06.971Z,100909.38
2022-10-14T14:35:44.931Z,100903.00
2022-10-14T14:43:19.820Z,100894.00
2022-10-14T14:50:55.341Z,100879.72
2022-10-14T14:58:33.182Z,100873.59
2022-10-14T15:06:08.447Z,100865.59
2022-10-14T15:13:50.425Z,100852.19
2022-10-14T15:21:25.491Z,100850.41
2022-10-14T15:29:06.332Z,100839.69
2022-10-14T15:36:41.981Z,100833.47
2022-10-14T15:44:17.351Z,100827.19
2022-10-14T15:51:52.796Z,100831.78
2022-10-14T15:59:26.914Z,100835.44
2022-10-14T16:07:01.951Z,100840.94
2022-10-14T16:14:35.731Z,100826.59
2022-10-14T16:22:11.604Z,100834.72
2022-10-14T16:29:45.210Z,100827.59
2022-10-14T16:37:20.532Z,100815.97
2022-10-14T16:44:54.798Z,100819.53
2022-10-14T16:52:29.912Z,100811.47
2022-10-14T17:00:03.643Z,100814.19
2022-10-14T17:07:38.698Z,100805.25
2022-10-14T17:15:12.521Z,100813.31
2022-10-14T17:22:48.511Z,100808.84
2022-10-14T17:30:22.178Z,100805.25
2022-10-14T17:37:57.115Z,100802.56
2022-10-14T17:45:31.399Z,100801.66
2022-10-14T17:53:06.760Z,100805.25
2022-10-14T18:00:40.437Z,100802.53
2022-10-14T18:08:15.619Z,100782.81
2022-10-14T18:15:49.426Z,100781.00
2022-10-14T18:23:24.798Z,100777.41
2022-10-14T18:30:58.766Z,100774.72
2022-10-14T18:38:34.832Z,100765.75
2022-10-14T18:46:13.272Z,100763.03
2022-10-14T18:53:50.302Z,100752.25
2022-10-14T19:01:24.242Z,100749.59
2022-10-14T19:09:01.356Z,100746.88
2022-10-14T19:16:36.877Z,100745.03
2022-10-14T19:24:13.718Z,100734.28
2022-10-14T19:31:55.078Z,100724.44
2022-10-14T19:39:31.046Z,100715.47
2022-10-14T19:47:04.804Z,100713.69
2022-10-14T19:54:40.442Z,100694.03
2022-10-14T20:02:14.587Z,100694.03
2022-10-14T20:09:49.698Z,100687.75
2022-10-14T20:17:23.230Z,100668.97
2022-10-14T20:24:58.542Z,100666.31
2022-10-14T20:32:32.343Z,100667.22
2022-10-14T20:40:09.108Z,100673.44
2022-10-14T20:47:42.805Z,100666.31
2022-10-14T20:55:18.960Z,100648.44
2022-10-14T21:02:52.628Z,100636.81
2022-10-14T21:10:28.629Z,100622.50
2022-10-14T21:18:02.224Z,100610.88
2022-10-14T21:25:37.226Z,100604.63
2022-10-14T21:33:10.715Z,100607.31
2022-10-14T21:40:45.715Z,100598.38
2022-10-14T21:48:19.326Z,100587.66
2022-10-14T21:55:54.561Z,100593.00
2022-10-14T22:03:28.341Z,100568.88
2022-10-14T22:11:03.591Z,100556.38
2022-10-14T22:18:37.518Z,100548.31
2022-10-14T22:26:18.101Z,100535.78
2022-10-14T22:33:51.963Z,100528.63
2022-10-14T22:41:32.320Z,100517.00
2022-10-14T22:49:07.875Z,100515.22
2022-10-14T22:56:43.729Z,100515.22
2022-10-14T23:04:18.085Z,100507.16
2022-10-14T23:11:53.644Z,100504.47
2022-10-14T23:19:27.267Z,100502.72
2022-10-14T23:27:02.410Z,100494.66
2022-10-14T23:34:36.031Z,100487.50
2022-10-14T23:42:11.075Z,100492.88
2022-10-14T23:49:44.591Z,100489.28
2022-10-14T23:57:20.534Z,100487.47
